sensor_id;sensor_type;location;lat;lon;timestamp;P1;durP1;ratioP1;P2;durP2;ratioP2
36321;SDS011;23564;48.290;11.460;2023-04-28T00:02:00;14.38;;;7.93;;
36321;SDS011;23564;48.290;11.460;2023-04-28T00:04:26;14.32;;;8.43;;
36321;SDS011;23564;48.290;11.460;2023-04-28T00:06:52;15.98;;;8.38;;
36321;SDS011;23564;48.290;11.460;2023-04-28T00:09:17;14.23;;;8.23;;
36321;SDS011;23564;48.290;11.460;2023-04-28T00:11:43;13.82;;;7.75;;
36321;SDS011;23564;48.290;11.460;2023-04-28T00:14:10;12.80;;;7.90;;
36321;SDS011;23564;48.290;11.460;2023-04-28T00:16:36;12.85;;;8.45;;
36321;SDS011;23564;48.290;11.460;2023-04-28T00:19:01;22.15;;;8.18;;
36321;SDS011;23564;48.290;11.460;2023-04-28T00:21:27;13.68;;;7.97;;
36321;SDS011;23564;48.290;11.460;2023-04-28T00:23:53;12.02;;;8.85;;
36321;SDS011;23564;48.290;11.460;2023-04-28T00:26:19;14.73;;;8.40;;
36321;SDS011;23564;48.290;11.460;2023-04-28T00:28:45;11.95;;;7.85;;
36321;SDS011;23564;48.290;11.460;2023-04-28T00:31:11;13.32;;;8.00;;
36321;SDS011;23564;48.290;11.460;2023-04-28T00:33:38;16.83;;;8.32;;
36321;SDS011;23564;48.290;11.460;2023-04-28T00:36:04;15.35;;;8.57;;
36321;SDS011;23564;48.290;11.460;2023-04-28T00:38:30;16.90;;;8.70;;
36321;SDS011;23564;48.290;11.460;2023-04-28T00:40:56;14.75;;;7.97;;
36321;SDS011;23564;48.290;11.460;2023-04-28T00:43:22;13.40;;;9.50;;
36321;SDS011;23564;48.290;11.460;2023-04-28T00:45:48;13.07;;;7.40;;
36321;SDS011;23564;48.290;11.460;2023-04-28T00:48:14;22.08;;;8.98;;
36321;SDS011;23564;48.290;11.460;2023-04-28T00:50:41;15.13;;;8.50;;
36321;SDS011;23564;48.290;11.460;2023-04-28T00:53:07;13.38;;;8.60;;
36321;SDS011;23564;48.290;11.460;2023-04-28T00:55:34;13.02;;;8.10;;
36321;SDS011;23564;48.290;11.460;2023-04-28T00:57:59;14.65;;;8.40;;
36321;SDS011;23564;48.290;11.460;2023-04-28T01:00:26;13.77;;;8.50;;
36321;SDS011;23564;48.290;11.460;2023-04-28T01:02:52;15.38;;;7.88;;
36321;SDS011;23564;48.290;11.460;2023-04-28T01:05:19;15.40;;;8.70;;
36321;SDS011;23564;48.290;11.460;2023-04-28T01:07:45;10.80;;;7.55;;
36321;SDS011;23564;48.290;11.460;2023-04-28T01:10:10;15.05;;;8.07;;
36321;SDS011;23564;48.290;11.460;2023-04-28T01:12:36;13.02;;;8.55;;
36321;SDS011;23564;48.290;11.460;2023-04-28T01:15:01;12.82;;;8.32;;
36321;SDS011;23564;48.290;11.460;2023-04-28T01:17:28;13.13;;;8.05;;
36321;SDS011;23564;48.290;11.460;2023-04-28T01:19:53;14.77;;;8.18;;
36321;SDS011;23564;48.290;11.460;2023-04-28T01:22:19;17.52;;;8.50;;
36321;SDS011;23564;48.290;11.460;2023-04-28T01:24:45;15.90;;;8.70;;
36321;SDS011;23564;48.290;11.460;2023-04-28T01:27:11;15.82;;;8.85;;
36321;SDS011;23564;48.290;11.460;2023-04-28T01:29:36;18.80;;;9.18;;
36321;SDS011;23564;48.290;11.460;2023-04-28T01:32:02;19.15;;;9.82;;
36321;SDS011;23564;48.290;11.460;2023-04-28T01:34:28;12.50;;;9.52;;
36321;SDS011;23564;48.290;11.460;2023-04-28T01:36:53;15.63;;;8.63;;
36321;SDS011;23564;48.290;11.460;2023-04-28T01:39:19;14.25;;;8.05;;
36321;SDS011;23564;48.290;11.460;2023-04-28T01:41:44;14.25;;;8.70;;
36321;SDS011;23564;48.290;11.460;2023-04-28T01:44:10;14.55;;;8.43;;
36321;SDS011;23564;48.290;11.460;2023-04-28T01:46:37;14.23;;;8.93;;
36321;SDS011;23564;48.290;11.460;2023-04-28T01:49:02;12.18;;;8.02;;
36321;SDS011;23564;48.290;11.460;2023-04-28T01:51:28;14.27;;;9.10;;
36321;SDS011;23564;48.290;11.460;2023-04-28T01:53:53;15.55;;;9.57;;
36321;SDS011;23564;48.290;11.460;2023-04-28T01:56:19;14.75;;;9.63;;
36321;SDS011;23564;48.290;11.460;2023-04-28T01:58:45;22.52;;;10.48;;
36321;SDS011;23564;48.290;11.460;2023-04-28T02:01:10;15.85;;;9.55;;
36321;SDS011;23564;48.290;11.460;2023-04-28T02:03:36;21.70;;;9.95;;
36321;SDS011;23564;48.290;11.460;2023-04-28T02:06:01;15.02;;;9.38;;
36321;SDS011;23564;48.290;11.460;2023-04-28T02:08:28;14.57;;;9.73;;
36321;SDS011;23564;48.290;11.460;2023-04-28T02:10:54;13.90;;;9.15;;
36321;SDS011;23564;48.290;11.460;2023-04-28T02:13:21;17.58;;;9.90;;
36321;SDS011;23564;48.290;11.460;2023-04-28T02:15:47;17.75;;;9.45;;
36321;SDS011;23564;48.290;11.460;2023-04-28T02:18:13;15.52;;;9.32;;
36321;SDS011;23564;48.290;11.460;2023-04-28T02:20:38;15.98;;;8.80;;
36321;SDS011;23564;48.290;11.460;2023-04-28T02:23:04;12.85;;;9.00;;
36321;SDS011;23564;48.290;11.460;2023-04-28T02:25:30;14.27;;;8.43;;
36321;SDS011;23564;48.290;11.460;2023-04-28T02:27:56;17.05;;;9.45;;
36321;SDS011;23564;48.290;11.460;2023-04-28T02:30:21;13.02;;;8.95;;
36321;SDS011;23564;48.290;11.460;2023-04-28T02:32:47;18.42;;;9.82;;
36321;SDS011;23564;48.290;11.460;2023-04-28T02:35:13;15.60;;;9.65;;
36321;SDS011;23564;48.290;11.460;2023-04-28T02:37:38;14.63;;;9.38;;
36321;SDS011;23564;48.290;11.460;2023-04-28T02:40:04;15.25;;;9.40;;
36321;SDS011;23564;48.290;11.460;2023-04-28T02:42:31;12.60;;;9.43;;
36321;SDS011;23564;48.290;11.460;2023-04-28T02:44:56;18.05;;;10.02;;
36321;SDS011;23564;48.290;11.460;2023-04-28T02:47:22;15.93;;;10.65;;
36321;SDS011;23564;48.290;11.460;2023-04-28T02:49:47;17.35;;;10.00;;
36321;SDS011;23564;48.290;11.460;2023-04-28T02:52:13;16.85;;;9.38;;
36321;SDS011;23564;48.290;11.460;2023-04-28T02:54:38;15.50;;;9.70;;
36321;SDS011;23564;48.290;11.460;2023-04-28T02:57:05;16.40;;;9.32;;
36321;SDS011;23564;48.290;11.460;2023-04-28T02:59:30;14.93;;;9.55;;
36321;SDS011;23564;48.290;11.460;2023-04-28T03:01:56;20.88;;;10.02;;
36321;SDS011;23564;48.290;11.460;2023-04-28T03:04:21;16.38;;;9.75;;
36321;SDS011;23564;48.290;11.460;2023-04-28T03:06:47;16.75;;;9.68;;
36321;SDS011;23564;48.290;11.460;2023-04-28T03:09:13;17.23;;;9.75;;
36321;SDS011;23564;48.290;11.460;2023-04-28T03:11:38;13.50;;;9.73;;
36321;SDS011;23564;48.290;11.460;2023-04-28T03:14:05;15.38;;;9.50;;
36321;SDS011;23564;48.290;11.460;2023-04-28T03:16:31;16.52;;;9.93;;
36321;SDS011;23564;48.290;11.460;2023-04-28T03:18:57;13.50;;;9.15;;
36321;SDS011;23564;48.290;11.460;2023-04-28T03:21:22;17.60;;;9.35;;
36321;SDS011;23564;48.290;11.460;2023-04-28T03:23:50;15.45;;;10.00;;
36321;SDS011;23564;48.290;11.460;2023-04-28T03:26:16;19.45;;;9.82;;
36321;SDS011;23564;48.290;11.460;2023-04-28T03:28:41;17.92;;;10.80;;
36321;SDS011;23564;48.290;11.460;2023-04-28T03:31:07;15.48;;;10.15;;
36321;SDS011;23564;48.290;11.460;2023-04-28T03:33:32;14.95;;;9.63;;
36321;SDS011;23564;48.290;11.460;2023-04-28T03:35:58;19.52;;;10.68;;
36321;SDS011;23564;48.290;11.460;2023-04-28T03:38:23;15.98;;;10.52;;
36321;SDS011;23564;48.290;11.460;2023-04-28T03:40:49;15.93;;;10.10;;
36321;SDS011;23564;48.290;11.460;2023-04-28T03:43:15;16.33;;;10.55;;
36321;SDS011;23564;48.290;11.460;2023-04-28T03:45:41;16.00;;;10.18;;
36321;SDS011;23564;48.290;11.460;2023-04-28T03:48:06;13.25;;;10.18;;
36321;SDS011;23564;48.290;11.460;2023-04-28T03:50:32;17.08;;;10.25;;
36321;SDS011;23564;48.290;11.460;2023-04-28T03:52:57;20.20;;;10.88;;
36321;SDS011;23564;48.290;11.460;2023-04-28T03:55:23;17.23;;;10.90;;
36321;SDS011;23564;48.290;11.460;2023-04-28T03:57:50;14.75;;;10.18;;
36321;SDS011;23564;48.290;11.460;2023-04-28T04:00:15;14.70;;;10.18;;
36321;SDS011;23564;48.290;11.460;2023-04-28T04:02:41;15.30;;;10.43;;
36321;SDS011;23564;48.290;11.460;2023-04-28T04:05:07;19.30;;;11.18;;
36321;SDS011;23564;48.290;11.460;2023-04-28T04:07:33;16.50;;;10.98;;
36321;SDS011;23564;48.290;11.460;2023-04-28T04:09:58;19.27;;;10.98;;
36321;SDS011;23564;48.290;11.460;2023-04-28T04:12:24;19.00;;;10.93;;
36321;SDS011;23564;48.290;11.460;2023-04-28T04:14:49;18.90;;;10.30;;
36321;SDS011;23564;48.290;11.460;2023-04-28T04:17:15;16.55;;;10.73;;
36321;SDS011;23564;48.290;11.460;2023-04-28T04:19:40;14.88;;;10.95;;
36321;SDS011;23564;48.290;11.460;2023-04-28T04:22:06;16.45;;;10.48;;
36321;SDS011;23564;48.290;11.460;2023-04-28T04:24:32;18.33;;;10.55;;
36321;SDS011;23564;48.290;11.460;2023-04-28T04:26:57;19.58;;;11.48;;
36321;SDS011;23564;48.290;11.460;2023-04-28T04:29:23;18.63;;;11.15;;
36321;SDS011;23564;48.290;11.460;2023-04-28T04:31:48;17.27;;;10.90;;
36321;SDS011;23564;48.290;11.460;2023-04-28T04:34:14;15.52;;;10.57;;
36321;SDS011;23564;48.290;11.460;2023-04-28T04:36:40;15.60;;;11.32;;
36321;SDS011;23564;48.290;11.460;2023-04-28T04:39:05;16.63;;;12.05;;
36321;SDS011;23564;48.290;11.460;2023-04-28T04:41:31;15.23;;;10.70;;
36321;SDS011;23564;48.290;11.460;2023-04-28T04:43:56;15.05;;;10.95;;
36321;SDS011;23564;48.290;11.460;2023-04-28T04:46:22;15.88;;;9.52;;
36321;SDS011;23564;48.290;11.460;2023-04-28T04:48:48;14.85;;;10.77;;
36321;SDS011;23564;48.290;11.460;2023-04-28T04:51:13;16.58;;;10.80;;
36321;SDS011;23564;48.290;11.460;2023-04-28T04:53:39;18.52;;;11.07;;
36321;SDS011;23564;48.290;11.460;2023-04-28T04:56:05;15.05;;;10.55;;
36321;SDS011;23564;48.290;11.460;2023-04-28T04:58:30;18.00;;;10.50;;
36321;SDS011;23564;48.290;11.460;2023-04-28T05:00:56;18.20;;;10.27;;
36321;SDS011;23564;48.290;11.460;2023-04-28T05:03:22;15.95;;;10.85;;
36321;SDS011;23564;48.290;11.460;2023-04-28T05:05:48;18.63;;;11.60;;
36321;SDS011;23564;48.290;11.460;2023-04-28T05:08:13;17.38;;;11.18;;
36321;SDS011;23564;48.290;11.460;2023-04-28T05:10:39;17.77;;;10.50;;
36321;SDS011;23564;48.290;11.460;2023-04-28T05:13:04;14.60;;;10.18;;
36321;SDS011;23564;48.290;11.460;2023-04-28T05:15:31;16.95;;;10.82;;
36321;SDS011;23564;48.290;11.460;2023-04-28T05:17:56;19.10;;;10.20;;
36321;SDS011;23564;48.290;11.460;2023-04-28T05:20:22;14.00;;;10.07;;
36321;SDS011;23564;48.290;11.460;2023-04-28T05:22:48;14.27;;;10.25;;
36321;SDS011;23564;48.290;11.460;2023-04-28T05:25:13;18.25;;;9.40;;
36321;SDS011;23564;48.290;11.460;2023-04-28T05:27:39;18.27;;;10.73;;
36321;SDS011;23564;48.290;11.460;2023-04-28T05:30:08;15.35;;;9.95;;
36321;SDS011;23564;48.290;11.460;2023-04-28T05:32:35;12.68;;;9.57;;
36321;SDS011;23564;48.290;11.460;2023-04-28T05:35:01;15.00;;;9.32;;
36321;SDS011;23564;48.290;11.460;2023-04-28T05:37:27;15.82;;;10.68;;
36321;SDS011;23564;48.290;11.460;2023-04-28T05:39:53;16.30;;;10.25;;
36321;SDS011;23564;48.290;11.460;2023-04-28T05:42:18;14.85;;;9.60;;
36321;SDS011;23564;48.290;11.460;2023-04-28T05:44:44;13.27;;;9.52;;
36321;SDS011;23564;48.290;11.460;2023-04-28T05:47:10;18.98;;;9.23;;
36321;SDS011;23564;48.290;11.460;2023-04-28T05:49:35;11.32;;;8.60;;
36321;SDS011;23564;48.290;11.460;2023-04-28T05:52:01;14.23;;;8.48;;
36321;SDS011;23564;48.290;11.460;2023-04-28T05:54:27;12.13;;;8.57;;
36321;SDS011;23564;48.290;11.460;2023-04-28T05:56:53;10.95;;;7.60;;
36321;SDS011;23564;48.290;11.460;2023-04-28T05:59:19;12.05;;;7.38;;
36321;SDS011;23564;48.290;11.460;2023-04-28T06:01:44;17.63;;;8.13;;
36321;SDS011;23564;48.290;11.460;2023-04-28T06:04:10;15.18;;;7.75;;
36321;SDS011;23564;48.290;11.460;2023-04-28T06:06:36;15.43;;;8.05;;
36321;SDS011;23564;48.290;11.460;2023-04-28T06:09:01;15.77;;;8.60;;
36321;SDS011;23564;48.290;11.460;2023-04-28T06:11:27;12.05;;;7.75;;
36321;SDS011;23564;48.290;11.460;2023-04-28T06:13:53;12.43;;;6.80;;
36321;SDS011;23564;48.290;11.460;2023-04-28T06:16:19;11.38;;;6.80;;
36321;SDS011;23564;48.290;11.460;2023-04-28T06:18:45;8.93;;;6.25;;
36321;SDS011;23564;48.290;11.460;2023-04-28T06:21:11;9.55;;;6.72;;
36321;SDS011;23564;48.290;11.460;2023-04-28T06:23:36;9.52;;;5.80;;
36321;SDS011;23564;48.290;11.460;2023-04-28T06:26:04;12.10;;;6.07;;
36321;SDS011;23564;48.290;11.460;2023-04-28T06:28:30;9.13;;;6.35;;
36321;SDS011;23564;48.290;11.460;2023-04-28T06:30:55;10.63;;;5.85;;
36321;SDS011;23564;48.290;11.460;2023-04-28T06:33:21;9.68;;;6.18;;
36321;SDS011;23564;48.290;11.460;2023-04-28T06:35:46;10.32;;;5.68;;
36321;SDS011;23564;48.290;11.460;2023-04-28T06:38:12;9.60;;;6.18;;
36321;SDS011;23564;48.290;11.460;2023-04-28T06:40:38;9.90;;;6.10;;
36321;SDS011;23564;48.290;11.460;2023-04-28T06:43:04;10.32;;;5.95;;
36321;SDS011;23564;48.290;11.460;2023-04-28T06:45:30;9.07;;;5.72;;
36321;SDS011;23564;48.290;11.460;2023-04-28T06:47:56;12.43;;;5.57;;
36321;SDS011;23564;48.290;11.460;2023-04-28T06:50:22;7.55;;;5.13;;
36321;SDS011;23564;48.290;11.460;2023-04-28T06:52:48;9.93;;;5.40;;
36321;SDS011;23564;48.290;11.460;2023-04-28T06:55:14;8.52;;;5.13;;
36321;SDS011;23564;48.290;11.460;2023-04-28T06:57:41;10.07;;;5.28;;
36321;SDS011;23564;48.290;11.460;2023-04-28T07:00:07;7.88;;;5.05;;
36321;SDS011;23564;48.290;11.460;2023-04-28T07:02:33;8.18;;;4.72;;
36321;SDS011;23564;48.290;11.460;2023-04-28T07:05:00;8.48;;;4.95;;
36321;SDS011;23564;48.290;11.460;2023-04-28T07:07:27;8.65;;;4.85;;
36321;SDS011;23564;48.290;11.460;2023-04-28T07:09:53;10.55;;;4.88;;
36321;SDS011;23564;48.290;11.460;2023-04-28T07:12:19;7.75;;;4.40;;
36321;SDS011;23564;48.290;11.460;2023-04-28T07:14:45;6.53;;;4.35;;
36321;SDS011;23564;48.290;11.460;2023-04-28T07:17:11;8.90;;;4.40;;
36321;SDS011;23564;48.290;11.460;2023-04-28T07:19:36;11.68;;;4.72;;
36321;SDS011;23564;48.290;11.460;2023-04-28T07:22:02;4.63;;;4.05;;
36321;SDS011;23564;48.290;11.460;2023-04-28T07:24:27;7.72;;;4.03;;
36321;SDS011;23564;48.290;11.460;2023-04-28T07:26:54;6.88;;;4.18;;
36321;SDS011;23564;48.290;11.460;2023-04-28T07:29:21;8.02;;;4.28;;
36321;SDS011;23564;48.290;11.460;2023-04-28T07:31:46;7.57;;;4.35;;
36321;SDS011;23564;48.290;11.460;2023-04-28T07:34:12;7.53;;;3.85;;
36321;SDS011;23564;48.290;11.460;2023-04-28T07:36:37;5.22;;;3.45;;
36321;SDS011;23564;48.290;11.460;2023-04-28T07:39:03;4.30;;;3.58;;
36321;SDS011;23564;48.290;11.460;2023-04-28T07:41:29;6.80;;;4.07;;
36321;SDS011;23564;48.290;11.460;2023-04-28T07:43:54;5.57;;;4.13;;
36321;SDS011;23564;48.290;11.460;2023-04-28T07:46:20;4.78;;;3.80;;
36321;SDS011;23564;48.290;11.460;2023-04-28T07:48:46;10.50;;;5.03;;
36321;SDS011;23564;48.290;11.460;2023-04-28T07:51:12;7.55;;;4.82;;
36321;SDS011;23564;48.290;11.460;2023-04-28T07:53:37;7.38;;;4.53;;
36321;SDS011;23564;48.290;11.460;2023-04-28T07:56:03;5.32;;;4.38;;
36321;SDS011;23564;48.290;11.460;2023-04-28T07:58:29;6.07;;;4.20;;
36321;SDS011;23564;48.290;11.460;2023-04-28T08:00:55;7.05;;;4.47;;
36321;SDS011;23564;48.290;11.460;2023-04-28T08:03:21;9.15;;;4.97;;
36321;SDS011;23564;48.290;11.460;2023-04-28T08:05:46;11.05;;;5.20;;
36321;SDS011;23564;48.290;11.460;2023-04-28T08:08:12;9.52;;;5.55;;
36321;SDS011;23564;48.290;11.460;2023-04-28T08:10:37;7.38;;;5.18;;
36321;SDS011;23564;48.290;11.460;2023-04-28T08:13:06;7.00;;;4.88;;
36321;SDS011;23564;48.290;11.460;2023-04-28T08:15:32;6.47;;;5.45;;
36321;SDS011;23564;48.290;11.460;2023-04-28T08:17:57;10.38;;;5.40;;
36321;SDS011;23564;48.290;11.460;2023-04-28T08:20:23;8.45;;;4.95;;
36321;SDS011;23564;48.290;11.460;2023-04-28T08:22:49;8.80;;;4.60;;
36321;SDS011;23564;48.290;11.460;2023-04-28T08:25:15;4.45;;;3.30;;
36321;SDS011;23564;48.290;11.460;2023-04-28T08:27:40;4.18;;;3.00;;
36321;SDS011;23564;48.290;11.460;2023-04-28T08:30:07;5.32;;;2.15;;
36321;SDS011;23564;48.290;11.460;2023-04-28T08:32:33;4.72;;;2.20;;
36321;SDS011;23564;48.290;11.460;2023-04-28T08:34:58;3.00;;;1.85;;
36321;SDS011;23564;48.290;11.460;2023-04-28T08:37:25;4.60;;;1.77;;
36321;SDS011;23564;48.290;11.460;2023-04-28T08:39:51;4.13;;;1.70;;
36321;SDS011;23564;48.290;11.460;2023-04-28T08:42:24;3.08;;;1.70;;
36321;SDS011;23564;48.290;11.460;2023-04-28T08:44:53;2.60;;;1.60;;
36321;SDS011;23564;48.290;11.460;2023-04-28T08:47:23;9.07;;;1.98;;
36321;SDS011;23564;48.290;11.460;2023-04-28T08:50:00;3.03;;;1.88;;
36321;SDS011;23564;48.290;11.460;2023-04-28T08:52:29;3.97;;;1.48;;
36321;SDS011;23564;48.290;11.460;2023-04-28T08:54:55;4.80;;;2.00;;
36321;SDS011;23564;48.290;11.460;2023-04-28T08:57:22;2.30;;;1.85;;
36321;SDS011;23564;48.290;11.460;2023-04-28T08:59:54;4.03;;;1.73;;
36321;SDS011;23564;48.290;11.460;2023-04-28T09:02:20;4.05;;;2.20;;
36321;SDS011;23564;48.290;11.460;2023-04-28T09:04:46;3.75;;;1.65;;
36321;SDS011;23564;48.290;11.460;2023-04-28T09:07:12;2.53;;;1.60;;
36321;SDS011;23564;48.290;11.460;2023-04-28T09:09:38;3.40;;;1.80;;
36321;SDS011;23564;48.290;11.460;2023-04-28T09:12:05;4.07;;;1.63;;
36321;SDS011;23564;48.290;11.460;2023-04-28T09:14:32;2.50;;;1.40;;
36321;SDS011;23564;48.290;11.460;2023-04-28T09:16:59;1.83;;;1.40;;
36321;SDS011;23564;48.290;11.460;2023-04-28T09:19:36;6.22;;;1.50;;
36321;SDS011;23564;48.290;11.460;2023-04-28T09:22:02;2.33;;;1.67;;
36321;SDS011;23564;48.290;11.460;2023-04-28T09:27:03;3.67;;;1.60;;
36321;SDS011;23564;48.290;11.460;2023-04-28T09:29:29;5.40;;;1.52;;
36321;SDS011;23564;48.290;11.460;2023-04-28T09:32:11;3.53;;;1.40;;
36321;SDS011;23564;48.290;11.460;2023-04-28T09:34:41;2.92;;;1.38;;
36321;SDS011;23564;48.290;11.460;2023-04-28T09:37:22;5.10;;;1.52;;
36321;SDS011;23564;48.290;11.460;2023-04-28T09:39:50;4.05;;;1.73;;
36321;SDS011;23564;48.290;11.460;2023-04-28T09:42:34;2.60;;;1.40;;
36321;SDS011;23564;48.290;11.460;2023-04-28T09:45:07;5.40;;;1.70;;
36321;SDS011;23564;48.290;11.460;2023-04-28T09:47:40;2.95;;;1.45;;
36321;SDS011;23564;48.290;11.460;2023-04-28T09:50:07;4.10;;;1.38;;
36321;SDS011;23564;48.290;11.460;2023-04-28T09:52:36;2.55;;;1.60;;
36321;SDS011;23564;48.290;11.460;2023-04-28T09:55:03;4.35;;;1.58;;
36321;SDS011;23564;48.290;11.460;2023-04-28T09:57:30;4.35;;;1.30;;
36321;SDS011;23564;48.290;11.460;2023-04-28T09:59:57;3.35;;;1.30;;
36321;SDS011;23564;48.290;11.460;2023-04-28T10:02:24;2.20;;;1.42;;
36321;SDS011;23564;48.290;11.460;2023-04-28T10:04:50;8.40;;;1.73;;
36321;SDS011;23564;48.290;11.460;2023-04-28T10:07:16;2.67;;;1.58;;
36321;SDS011;23564;48.290;11.460;2023-04-28T10:09:45;6.00;;;1.90;;
36321;SDS011;23564;48.290;11.460;2023-04-28T10:12:15;3.10;;;1.48;;
36321;SDS011;23564;48.290;11.460;2023-04-28T10:14:41;2.15;;;1.67;;
36321;SDS011;23564;48.290;11.460;2023-04-28T10:17:09;5.65;;;2.17;;
36321;SDS011;23564;48.290;11.460;2023-04-28T10:19:37;6.32;;;1.58;;
36321;SDS011;23564;48.290;11.460;2023-04-28T10:25:06;6.07;;;1.80;;
36321;SDS011;23564;48.290;11.460;2023-04-28T10:27:33;12.10;;;2.40;;
36321;SDS011;23564;48.290;11.460;2023-04-28T10:30:10;3.33;;;1.85;;
36321;SDS011;23564;48.290;11.460;2023-04-28T10:32:36;5.00;;;2.13;;
36321;SDS011;23564;48.290;11.460;2023-04-28T10:35:39;4.97;;;1.65;;
36321;SDS011;23564;48.290;11.460;2023-04-28T10:38:03;3.80;;;1.58;;
36321;SDS011;23564;48.290;11.460;2023-04-28T10:43:06;4.97;;;2.05;;
36321;SDS011;23564;48.290;11.460;2023-04-28T10:48:21;6.40;;;2.08;;
36321;SDS011;23564;48.290;11.460;2023-04-28T10:58:41;5.65;;;2.28;;
36321;SDS011;23564;48.290;11.460;2023-04-28T11:01:23;3.00;;;1.40;;
36321;SDS011;23564;48.290;11.460;2023-04-28T11:03:50;3.35;;;1.20;;
36321;SDS011;23564;48.290;11.460;2023-04-28T11:06:32;4.22;;;1.67;;
36321;SDS011;23564;48.290;11.460;2023-04-28T11:16:49;4.13;;;1.50;;
36321;SDS011;23564;48.290;11.460;2023-04-28T11:19:17;5.45;;;1.40;;
36321;SDS011;23564;48.290;11.460;2023-04-28T11:21:45;4.05;;;1.17;;
36321;SDS011;23564;48.290;11.460;2023-04-28T11:24:12;2.65;;;1.40;;
36321;SDS011;23564;48.290;11.460;2023-04-28T11:26:38;5.13;;;1.40;;
36321;SDS011;23564;48.290;11.460;2023-04-28T11:29:04;2.28;;;1.60;;
36321;SDS011;23564;48.290;11.460;2023-04-28T11:31:30;4.10;;;2.22;;
36321;SDS011;23564;48.290;11.460;2023-04-28T11:33:59;1.80;;;1.42;;
36321;SDS011;23564;48.290;11.460;2023-04-28T11:36:39;3.50;;;2.00;;
36321;SDS011;23564;48.290;11.460;2023-04-28T11:39:06;3.75;;;1.50;;
36321;SDS011;23564;48.290;11.460;2023-04-28T11:41:35;2.30;;;1.10;;
36321;SDS011;23564;48.290;11.460;2023-04-28T11:44:15;3.47;;;1.50;;
36321;SDS011;23564;48.290;11.460;2023-04-28T11:46:49;4.18;;;1.55;;
36321;SDS011;23564;48.290;11.460;2023-04-28T11:49:19;3.17;;;1.00;;
36321;SDS011;23564;48.290;11.460;2023-04-28T11:51:48;1.40;;;1.10;;
36321;SDS011;23564;48.290;11.460;2023-04-28T11:54:21;1.92;;;0.90;;
36321;SDS011;23564;48.290;11.460;2023-04-28T11:56:49;2.30;;;1.10;;
36321;SDS011;23564;48.290;11.460;2023-04-28T11:59:15;3.28;;;1.17;;
36321;SDS011;23564;48.290;11.460;2023-04-28T12:01:45;3.58;;;1.30;;
36321;SDS011;23564;48.290;11.460;2023-04-28T12:04:13;4.05;;;1.40;;
36321;SDS011;23564;48.290;11.460;2023-04-28T12:06:57;7.20;;;1.60;;
36321;SDS011;23564;48.290;11.460;2023-04-28T12:09:27;1.83;;;1.17;;
36321;SDS011;23564;48.290;11.460;2023-04-28T12:12:00;1.13;;;1.02;;
36321;SDS011;23564;48.290;11.460;2023-04-28T12:14:52;2.00;;;1.00;;
36321;SDS011;23564;48.290;11.460;2023-04-28T12:17:32;3.25;;;1.13;;
36321;SDS011;23564;48.290;11.460;2023-04-28T12:20:00;1.70;;;0.95;;
36321;SDS011;23564;48.290;11.460;2023-04-28T12:22:27;1.60;;;1.02;;
36321;SDS011;23564;48.290;11.460;2023-04-28T12:25:06;2.45;;;1.15;;
36321;SDS011;23564;48.290;11.460;2023-04-28T12:27:34;2.33;;;1.25;;
36321;SDS011;23564;48.290;11.460;2023-04-28T12:30:03;4.35;;;1.00;;
36321;SDS011;23564;48.290;11.460;2023-04-28T12:32:49;2.35;;;1.13;;
36321;SDS011;23564;48.290;11.460;2023-04-28T12:35:15;2.35;;;1.25;;
36321;SDS011;23564;48.290;11.460;2023-04-28T12:37:41;3.97;;;1.50;;
36321;SDS011;23564;48.290;11.460;2023-04-28T12:40:07;2.30;;;1.30;;
36321;SDS011;23564;48.290;11.460;2023-04-28T12:42:33;2.63;;;1.20;;
36321;SDS011;23564;48.290;11.460;2023-04-28T12:45:00;1.73;;;1.42;;
36321;SDS011;23564;48.290;11.460;2023-04-28T12:47:26;2.08;;;1.60;;
36321;SDS011;23564;48.290;11.460;2023-04-28T12:49:51;1.63;;;1.42;;
36321;SDS011;23564;48.290;11.460;2023-04-28T12:52:18;1.75;;;1.48;;
36321;SDS011;23564;48.290;11.460;2023-04-28T12:54:44;2.15;;;1.27;;
36321;SDS011;23564;48.290;11.460;2023-04-28T12:57:16;4.05;;;1.15;;
36321;SDS011;23564;48.290;11.460;2023-04-28T12:59:43;2.67;;;1.30;;
36321;SDS011;23564;48.290;11.460;2023-04-28T13:02:13;2.33;;;1.20;;
36321;SDS011;23564;48.290;11.460;2023-04-28T13:04:39;2.13;;;1.73;;
36321;SDS011;23564;48.290;11.460;2023-04-28T13:07:10;1.98;;;1.50;;
36321;SDS011;23564;48.290;11.460;2023-04-28T13:09:36;1.75;;;1.30;;
36321;SDS011;23564;48.290;11.460;2023-04-28T13:12:02;2.15;;;1.30;;
36321;SDS011;23564;48.290;11.460;2023-04-28T13:14:28;3.30;;;1.83;;
36321;SDS011;23564;48.290;11.460;2023-04-28T13:16:54;2.15;;;1.63;;
36321;SDS011;23564;48.290;11.460;2023-04-28T13:19:20;2.40;;;1.73;;
36321;SDS011;23564;48.290;11.460;2023-04-28T13:21:47;2.65;;;1.77;;
36321;SDS011;23564;48.290;11.460;2023-04-28T13:24:12;2.72;;;1.65;;
36321;SDS011;23564;48.290;11.460;2023-04-28T13:26:38;1.80;;;1.60;;
36321;SDS011;23564;48.290;11.460;2023-04-28T13:29:04;2.03;;;1.52;;
36321;SDS011;23564;48.290;11.460;2023-04-28T13:31:32;2.10;;;1.50;;
36321;SDS011;23564;48.290;11.460;2023-04-28T13:33:58;2.60;;;1.50;;
36321;SDS011;23564;48.290;11.460;2023-04-28T13:36:25;2.25;;;1.38;;
36321;SDS011;23564;48.290;11.460;2023-04-28T13:38:53;2.53;;;1.40;;
36321;SDS011;23564;48.290;11.460;2023-04-28T13:41:19;2.03;;;1.30;;
36321;SDS011;23564;48.290;11.460;2023-04-28T13:43:45;1.63;;;0.90;;
36321;SDS011;23564;48.290;11.460;2023-04-28T13:46:11;1.27;;;1.15;;
36321;SDS011;23564;48.290;11.460;2023-04-28T13:48:37;1.23;;;1.13;;
36321;SDS011;23564;48.290;11.460;2023-04-28T13:51:04;2.67;;;1.50;;
36321;SDS011;23564;48.290;11.460;2023-04-28T13:53:30;2.25;;;1.48;;
36321;SDS011;23564;48.290;11.460;2023-04-28T13:55:56;2.17;;;1.60;;
36321;SDS011;23564;48.290;11.460;2023-04-28T13:58:25;2.45;;;1.70;;
36321;SDS011;23564;48.290;11.460;2023-04-28T14:00:52;1.70;;;1.40;;
36321;SDS011;23564;48.290;11.460;2023-04-28T14:03:18;1.40;;;1.08;;
36321;SDS011;23564;48.290;11.460;2023-04-28T14:05:46;1.38;;;0.90;;
36321;SDS011;23564;48.290;11.460;2023-04-28T14:08:13;1.02;;;0.70;;
36321;SDS011;23564;48.290;11.460;2023-04-28T14:10:40;2.08;;;0.65;;
36321;SDS011;23564;48.290;11.460;2023-04-28T14:13:06;0.60;;;0.60;;
36321;SDS011;23564;48.290;11.460;2023-04-28T14:15:31;3.83;;;0.60;;
36321;SDS011;23564;48.290;11.460;2023-04-28T14:17:57;0.80;;;0.70;;
36321;SDS011;23564;48.290;11.460;2023-04-28T14:20:23;0.77;;;0.70;;
36321;SDS011;23564;48.290;11.460;2023-04-28T14:22:48;1.05;;;0.70;;
36321;SDS011;23564;48.290;11.460;2023-04-28T14:25:15;0.98;;;0.80;;
36321;SDS011;23564;48.290;11.460;2023-04-28T14:27:42;1.20;;;0.98;;
36321;SDS011;23564;48.290;11.460;2023-04-28T14:30:07;3.20;;;0.70;;
36321;SDS011;23564;48.290;11.460;2023-04-28T14:32:34;2.97;;;0.82;;
36321;SDS011;23564;48.290;11.460;2023-04-28T14:35:00;0.77;;;0.73;;
36321;SDS011;23564;48.290;11.460;2023-04-28T14:37:28;0.73;;;0.70;;
36321;SDS011;23564;48.290;11.460;2023-04-28T14:39:54;0.80;;;0.80;;
36321;SDS011;23564;48.290;11.460;2023-04-28T14:42:20;0.73;;;0.57;;
36321;SDS011;23564;48.290;11.460;2023-04-28T14:44:46;1.58;;;0.80;;
36321;SDS011;23564;48.290;11.460;2023-04-28T14:47:12;1.73;;;1.00;;
36321;SDS011;23564;48.290;11.460;2023-04-28T14:49:37;1.30;;;1.00;;
36321;SDS011;23564;48.290;11.460;2023-04-28T14:52:03;1.48;;;1.10;;